createdAt,value
2018-06-15T00:02:32.804Z,97.70
2018-06-15T00:05:00.343Z,97.90
2018-06-15T00:07:27.892Z,97.50
2018-06-15T00:09:56.298Z,97.60
2018-06-15T00:12:23.934Z,97.60
2018-06-15T00:14:51.497Z,97.60
2018-06-15T00:17:19.015Z,97.70
2018-06-15T00:19:46.531Z,97.80
2018-06-15T00:22:14.097Z,97.70
2018-06-15T00:24:41.685Z,97.70
2018-06-15T00:27:09.197Z,97.70
2018-06-15T00:29:36.715Z,97.80
2018-06-15T00:32:04.230Z,97.80
2018-06-15T00:34:31.761Z,97.80
2018-06-15T00:36:59.317Z,97.80
2018-06-15T00:39:26.881Z,97.80
2018-06-15T00:41:54.466Z,97.90
2018-06-15T00:44:21.999Z,97.90
2018-06-15T00:46:49.588Z,97.90
2018-06-15T00:49:17.122Z,97.80
2018-06-15T00:51:44.681Z,97.80
2018-06-15T00:54:12.215Z,97.80
2018-06-15T00:56:50.950Z,97.80
2018-06-15T00:59:18.507Z,97.70
2018-06-15T01:01:46.053Z,97.80
2018-06-15T01:04:13.613Z,97.80
2018-06-15T01:06:41.160Z,97.90
2018-06-15T01:09:08.955Z,98.00
2018-06-15T01:11:36.765Z,98.00
2018-06-15T01:14:04.380Z,98.10
2018-06-15T01:16:31.907Z,98.30
2018-06-15T01:18:59.619Z,98.40
2018-06-15T01:21:27.157Z,98.50
2018-06-15T01:23:54.798Z,98.60
2018-06-15T01:26:22.328Z,98.60
2018-06-15T01:28:49.877Z,98.60
2018-06-15T01:31:17.415Z,98.70
2018-06-15T01:33:44.980Z,98.70
2018-06-15T01:36:12.517Z,98.80
2018-06-15T01:38:40.042Z,98.80
2018-06-15T01:41:07.570Z,98.70
2018-06-15T01:43:35.139Z,98.60
2018-06-15T01:46:02.845Z,98.40
2018-06-15T01:48:30.429Z,98.40
2018-06-15T01:50:57.939Z,98.40
2018-06-15T01:53:25.481Z,98.40
2018-06-15T01:55:53.150Z,98.30
2018-06-15T01:58:20.677Z,98.30
2018-06-15T02:00:48.201Z,98.20
2018-06-15T02:03:15.732Z,98.20
2018-06-15T02:05:43.251Z,98.40
2018-06-15T02:08:10.864Z,98.50
2018-06-15T02:10:38.398Z,98.60
2018-06-15T02:13:05.939Z,98.70
2018-06-15T02:15:33.867Z,98.70
2018-06-15T02:18:01.433Z,98.80
2018-06-15T02:20:28.960Z,98.90
2018-06-15T02:22:56.500Z,99.10
2018-06-15T02:25:24.029Z,99.40
2018-06-15T02:27:51.568Z,99.50
2018-06-15T02:30:19.126Z,99.60
2018-06-15T02:32:46.685Z,99.70
2018-06-15T02:35:14.219Z,99.70
2018-06-15T02:37:41.789Z,99.90
2018-06-15T02:40:09.350Z,99.90
2018-06-15T02:42:36.894Z,99.90
2018-06-15T02:45:04.510Z,99.90
2018-06-15T02:47:32.014Z,99.80
2018-06-15T02:49:59.532Z,99.10
2018-06-15T02:52:27.059Z,98.70
2018-06-15T02:54:54.576Z,98.40
2018-06-15T02:57:22.232Z,98.10
2018-06-15T02:59:49.841Z,97.90
2018-06-15T03:02:17.445Z,97.50
2018-06-15T03:04:44.978Z,97.10
2018-06-15T03:07:12.497Z,96.80
2018-06-15T03:09:40.030Z,96.80
2018-06-15T03:12:07.569Z,96.80
2018-06-15T03:14:35.142Z,96.90
2018-06-15T03:17:02.711Z,96.90
2018-06-15T03:19:30.265Z,96.80
2018-06-15T03:21:57.827Z,96.90
2018-06-15T03:24:25.427Z,96.90
2018-06-15T03:26:52.947Z,96.90
2018-06-15T03:29:20.482Z,96.90
2018-06-15T03:31:47.993Z,96.90
2018-06-15T03:34:15.553Z,96.80
2018-06-15T03:36:43.049Z,96.80
2018-06-15T03:39:11.651Z,96.60
2018-06-15T03:41:39.695Z,96.80
2018-06-15T03:44:07.447Z,96.90
2018-06-15T03:46:35.803Z,96.90
2018-06-15T03:49:03.365Z,96.90
2018-06-15T03:51:30.940Z,96.90
2018-06-15T03:53:58.521Z,97.00
2018-06-15T03:56:26.033Z,97.00
2018-06-15T03:58:53.579Z,96.90
2018-06-15T04:01:21.114Z,96.90
2018-06-15T04:03:48.650Z,96.90
2018-06-15T04:06:16.194Z,96.90
2018-06-15T04:08:43.685Z,96.90
2018-06-15T04:11:11.219Z,96.80
2018-06-15T04:13:38.772Z,96.70
2018-06-15T04:16:06.333Z,96.70
2018-06-15T04:18:33.848Z,96.60
2018-06-15T04:21:01.379Z,96.40
2018-06-15T04:23:28.914Z,96.40
2018-06-15T04:25:56.433Z,96.10
2018-06-15T04:28:23.938Z,95.90
2018-06-15T04:30:51.478Z,96.00
2018-06-15T04:33:18.997Z,96.00
2018-06-15T04:35:46.559Z,96.10
2018-06-15T04:38:14.119Z,96.10
2018-06-15T04:40:41.664Z,96.00
2018-06-15T04:43:09.249Z,95.90
2018-06-15T04:45:36.792Z,95.90
2018-06-15T04:48:04.566Z,96.00
2018-06-15T04:50:32.128Z,96.10
2018-06-15T04:52:59.682Z,96.20
2018-06-15T04:55:27.270Z,96.10
2018-06-15T04:57:54.790Z,96.10
2018-06-15T05:00:22.356Z,96.00
2018-06-15T05:02:49.882Z,95.80
2018-06-15T05:10:12.370Z,95.70
2018-06-15T05:12:39.883Z,95.50
2018-06-15T05:15:07.430Z,95.40
2018-06-15T05:17:35.332Z,95.50
2018-06-15T05:20:03.006Z,95.60
2018-06-15T05:22:30.540Z,95.70
2018-06-15T05:24:58.137Z,95.80
2018-06-15T05:27:25.676Z,95.80
2018-06-15T05:29:53.242Z,95.70
2018-06-15T05:32:20.789Z,95.80
2018-06-15T05:34:48.345Z,95.80
2018-06-15T05:37:15.924Z,95.70
2018-06-15T05:39:43.532Z,95.70
2018-06-15T05:42:11.098Z,96.00
2018-06-15T05:44:38.632Z,96.50
2018-06-15T05:47:06.191Z,96.80
2018-06-15T05:49:33.727Z,96.90
2018-06-15T05:52:01.278Z,96.80
2018-06-15T05:54:28.811Z,96.30
2018-06-15T05:56:56.423Z,96.00
2018-06-15T05:59:23.969Z,95.50
2018-06-15T06:01:51.541Z,95.30
2018-06-15T06:04:19.077Z,94.90
2018-06-15T06:06:46.635Z,94.80
2018-06-15T06:09:14.215Z,94.90
2018-06-15T06:11:41.783Z,94.50
2018-06-15T06:14:09.356Z,93.30
2018-06-15T06:16:36.909Z,92.90
2018-06-15T06:19:04.475Z,92.50
2018-06-15T06:21:32.019Z,92.30
2018-06-15T06:23:59.619Z,91.90
2018-06-15T06:26:27.187Z,90.70
2018-06-15T06:28:54.728Z,89.30
2018-06-15T06:31:22.281Z,87.40
2018-06-15T06:33:49.809Z,87.30
2018-06-15T06:36:17.349Z,86.10
2018-06-15T06:38:44.893Z,83.50
2018-06-15T06:41:12.473Z,82.90
2018-06-15T06:43:40.021Z,82.10
2018-06-15T06:46:07.581Z,80.40
2018-06-15T06:48:35.163Z,79.80
2018-06-15T06:51:02.717Z,79.60
2018-06-15T06:53:30.235Z,79.20
2018-06-15T06:55:57.817Z,78.00
2018-06-15T06:58:25.370Z,76.90
2018-06-15T07:00:52.925Z,76.50
2018-06-15T07:03:20.466Z,74.50
2018-06-15T07:05:48.124Z,73.00
2018-06-15T07:08:15.666Z,69.50
2018-06-15T07:10:43.221Z,68.80
2018-06-15T07:13:10.774Z,70.40
2018-06-15T07:15:38.385Z,70.30
2018-06-15T07:18:05.983Z,71.20
2018-06-15T07:20:33.609Z,69.20
2018-06-15T07:23:01.193Z,68.10
2018-06-15T07:25:28.820Z,66.40
2018-06-15T07:27:56.374Z,66.20
2018-06-15T07:30:23.920Z,65.30
2018-06-15T07:32:51.515Z,66.10
2018-06-15T07:35:19.105Z,66.60
2018-06-15T07:37:46.663Z,66.20
2018-06-15T07:40:14.228Z,65.30
2018-06-15T07:42:41.793Z,64.80
2018-06-15T07:45:09.343Z,64.50
2018-06-15T07:47:36.872Z,64.70
2018-06-15T07:50:04.493Z,65.00
2018-06-15T07:52:32.125Z,64.10
2018-06-15T07:54:59.714Z,65.10
2018-06-15T07:57:27.294Z,64.50
2018-06-15T07:59:54.842Z,63.40
2018-06-15T08:02:22.456Z,64.60
2018-06-15T08:04:50.004Z,64.20
2018-06-15T08:07:17.556Z,64.00
2018-06-15T08:09:45.066Z,61.80
2018-06-15T08:12:12.654Z,61.10
2018-06-15T08:14:40.219Z,61.10
2018-06-15T08:17:07.814Z,58.80
2018-06-15T08:19:35.378Z,59.10
2018-06-15T08:22:02.985Z,59.10
2018-06-15T08:24:30.535Z,59.50
2018-06-15T08:26:58.128Z,60.70
2018-06-15T08:29:25.675Z,60.90
2018-06-15T08:31:53.217Z,60.60
2018-06-15T08:34:20.793Z,60.50
2018-06-15T08:36:48.389Z,60.10
2018-06-15T08:39:15.947Z,60.50
2018-06-15T08:41:43.555Z,61.10
2018-06-15T08:44:11.099Z,60.80
2018-06-15T08:46:38.689Z,60.40
2018-06-15T08:49:06.361Z,60.30
2018-06-15T08:51:33.891Z,60.50
2018-06-15T08:54:01.482Z,60.00
2018-06-15T08:56:29.011Z,60.40
2018-06-15T08:58:57.866Z,60.60
2018-06-15T09:01:25.434Z,59.90
2018-06-15T09:03:52.987Z,59.70
2018-06-15T09:06:20.549Z,60.00
2018-06-15T09:08:48.116Z,59.80
2018-06-15T09:11:15.657Z,60.20
2018-06-15T09:13:43.219Z,58.40
2018-06-15T09:16:10.756Z,58.30
2018-06-15T09:18:38.434Z,58.80
2018-06-15T09:21:06.007Z,57.50
2018-06-15T09:23:33.639Z,57.80
2018-06-15T09:26:01.182Z,57.60
2018-06-15T09:28:28.762Z,57.50
2018-06-15T09:30:56.299Z,58.00
2018-06-15T09:33:23.850Z,56.50
2018-06-15T09:35:51.396Z,55.00
2018-06-15T09:38:18.952Z,55.70
2018-06-15T09:40:46.524Z,54.20
2018-06-15T09:43:14.092Z,54.40
2018-06-15T09:45:41.624Z,55.20
2018-06-15T09:48:09.205Z,54.40
2018-06-15T09:50:36.741Z,53.40
2018-06-15T09:53:04.319Z,52.50
2018-06-15T09:55:31.846Z,52.40
2018-06-15T09:57:59.383Z,51.80
2018-06-15T10:00:32.499Z,52.70
2018-06-15T10:03:00.092Z,52.40
2018-06-15T10:05:27.666Z,50.90
2018-06-15T10:07:55.202Z,51.10
2018-06-15T10:10:22.735Z,50.80
2018-06-15T10:12:50.255Z,50.40
2018-06-15T10:15:17.838Z,49.80
2018-06-15T10:17:45.348Z,49.80
2018-06-15T10:20:12.928Z,48.10
2018-06-15T10:22:40.486Z,47.20
2018-06-15T10:25:08.061Z,47.10
2018-06-15T10:27:35.599Z,47.30
2018-06-15T10:30:03.292Z,47.00
2018-06-15T10:32:30.836Z,48.10
2018-06-15T10:34:58.438Z,47.50
2018-06-15T10:37:26.033Z,47.50
2018-06-15T10:39:53.928Z,48.20
2018-06-15T10:42:21.442Z,47.60
2018-06-15T10:44:48.964Z,47.20
2018-06-15T10:47:16.534Z,45.70
2018-06-15T10:49:44.176Z,45.10
2018-06-15T10:52:12.292Z,45.90
2018-06-15T10:54:39.845Z,45.90
2018-06-15T10:57:07.668Z,46.00
2018-06-15T10:59:35.242Z,46.50
2018-06-15T11:02:02.775Z,46.50
2018-06-15T11:04:30.321Z,47.60
2018-06-15T11:06:57.888Z,48.00
2018-06-15T11:09:25.482Z,48.80
2018-06-15T11:11:53.005Z,48.20
2018-06-15T11:14:20.559Z,48.00
2018-06-15T11:16:48.097Z,46.80
2018-06-15T11:19:15.751Z,44.60
2018-06-15T11:21:43.293Z,42.90
2018-06-15T11:24:10.840Z,41.90
2018-06-15T11:26:38.369Z,41.90
2018-06-15T11:29:05.934Z,40.00
2018-06-15T11:31:33.587Z,39.90
2018-06-15T11:34:01.152Z,39.90
2018-06-15T11:36:28.741Z,38.60
2018-06-15T11:38:56.293Z,37.90
2018-06-15T11:41:23.833Z,37.50
2018-06-15T11:43:51.404Z,36.70
2018-06-15T11:46:18.983Z,35.80
2018-06-15T11:48:46.492Z,35.10
2018-06-15T11:51:14.064Z,35.00
2018-06-15T11:53:41.596Z,34.00
2018-06-15T11:56:09.395Z,34.30
2018-06-15T11:58:36.951Z,36.60
2018-06-15T12:01:04.523Z,39.50
2018-06-15T12:03:32.054Z,40.50
2018-06-15T12:05:59.642Z,40.90
2018-06-15T12:08:27.212Z,41.20
2018-06-15T12:10:54.814Z,42.20
2018-06-15T12:13:22.354Z,43.40
2018-06-15T12:15:49.889Z,41.40
2018-06-15T12:18:17.454Z,40.00
2018-06-15T12:20:45.027Z,38.50
2018-06-15T12:23:12.602Z,37.20
2018-06-15T12:25:40.179Z,36.40
2018-06-15T12:28:07.834Z,35.60
2018-06-15T12:30:35.590Z,34.20
2018-06-15T12:33:03.266Z,33.80
2018-06-15T12:35:30.964Z,33.40
2018-06-15T12:37:58.640Z,32.80
2018-06-15T12:40:26.358Z,33.00
2018-06-15T12:42:53.922Z,33.30
2018-06-15T12:47:48.994Z,33.90
2018-06-15T12:50:16.533Z,34.80
2018-06-15T12:57:39.014Z,34.80
2018-06-15T13:00:06.615Z,34.10
2018-06-15T13:02:34.148Z,33.40
2018-06-15T13:05:01.939Z,35.00
2018-06-15T13:07:29.514Z,34.70
2018-06-15T13:09:57.674Z,33.90
2018-06-15T13:12:25.250Z,34.20
2018-06-15T13:14:52.877Z,33.90
2018-06-15T13:17:20.417Z,33.20
2018-06-15T13:19:48.010Z,34.80
2018-06-15T13:22:15.582Z,34.40
2018-06-15T13:24:43.124Z,32.70
2018-06-15T13:27:10.662Z,31.30
2018-06-15T13:29:38.228Z,30.70
2018-06-15T13:32:05.801Z,31.10
2018-06-15T13:34:33.353Z,32.30
2018-06-15T13:37:00.995Z,32.20
2018-06-15T13:39:28.591Z,32.10
2018-06-15T13:41:56.153Z,32.10
2018-06-15T13:44:23.699Z,32.50
2018-06-15T13:46:51.282Z,33.70
2018-06-15T13:49:18.924Z,34.70
2018-06-15T13:51:46.537Z,35.50
2018-06-15T13:54:14.103Z,36.70
2018-06-15T13:56:41.729Z,37.40
2018-06-15T13:59:09.329Z,38.50
2018-06-15T14:01:36.879Z,38.20
2018-06-15T14:04:04.437Z,37.30
2018-06-15T14:06:32.031Z,37.10
2018-06-15T14:08:59.589Z,36.40
2018-06-15T14:11:27.171Z,35.50
2018-06-15T14:13:54.734Z,34.20
2018-06-15T14:16:22.266Z,33.20
2018-06-15T14:21:17.332Z,32.10
2018-06-15T14:23:44.902Z,31.20
2018-06-15T14:26:12.722Z,31.30
2018-06-15T14:28:40.276Z,31.10
2018-06-15T14:31:07.928Z,31.20
2018-06-15T14:33:35.430Z,30.80
2018-06-15T14:36:03.028Z,29.90
2018-06-15T14:38:30.724Z,30.40
2018-06-15T14:40:58.317Z,31.90
2018-06-15T14:43:25.945Z,33.30
2018-06-15T14:48:21.008Z,35.70
2018-06-15T14:50:48.602Z,36.60
2018-06-15T14:53:16.175Z,37.70
2018-06-15T14:55:43.870Z,38.50
2018-06-15T14:58:11.440Z,38.20
2018-06-15T15:00:39.223Z,36.90
2018-06-15T15:03:06.800Z,35.90
2018-06-15T15:05:34.327Z,34.60
2018-06-15T15:10:29.398Z,32.80
2018-06-15T15:12:56.956Z,32.70
2018-06-15T15:15:24.632Z,32.10
2018-06-15T15:17:52.204Z,31.60
2018-06-15T15:20:19.785Z,32.30
2018-06-15T15:22:47.336Z,31.80
2018-06-15T15:25:14.884Z,31.20
2018-06-15T15:27:42.473Z,30.70
2018-06-15T15:30:10.098Z,30.80
2018-06-15T15:32:37.625Z,30.70
2018-06-15T15:35:05.469Z,30.50
2018-06-15T15:37:33.053Z,29.60
2018-06-15T15:40:00.757Z,29.20
2018-06-15T15:42:28.341Z,29.30
2018-06-15T15:44:55.939Z,29.40
2018-06-15T15:47:23.543Z,29.10
2018-06-15T15:49:51.387Z,29.90
2018-06-15T15:52:18.929Z,31.10
2018-06-15T15:54:46.464Z,32.00
2018-06-15T15:57:14.036Z,31.60
2018-06-15T15:59:41.565Z,31.70
2018-06-15T16:02:09.137Z,31.80
2018-06-15T16:04:36.775Z,32.30
2018-06-15T16:07:04.337Z,31.40
2018-06-15T16:09:31.901Z,31.20
2018-06-15T16:11:59.445Z,32.10
2018-06-15T16:14:27.007Z,32.20
2018-06-15T16:16:54.590Z,31.20
2018-06-15T16:19:22.461Z,31.40
2018-06-15T16:21:50.057Z,32.10
2018-06-15T16:24:17.616Z,32.30
2018-06-15T16:26:45.185Z,33.20
2018-06-15T16:29:12.722Z,33.60
2018-06-15T16:31:40.283Z,33.70
2018-06-15T16:34:07.905Z,33.20
2018-06-15T16:36:35.494Z,34.10
2018-06-15T16:39:04.782Z,33.90
2018-06-15T16:41:32.434Z,34.00
2018-06-15T16:43:59.992Z,33.80
2018-06-15T16:46:27.668Z,33.30
2018-06-15T16:48:55.432Z,32.90
2018-06-15T16:51:23.079Z,32.50
2018-06-15T16:53:50.761Z,32.40
2018-06-15T16:56:18.372Z,32.80
2018-06-15T16:58:45.978Z,32.60
2018-06-15T17:01:13.622Z,33.10
2018-06-15T17:03:41.252Z,32.80
2018-06-15T17:06:09.070Z,32.60
2018-06-15T17:08:36.766Z,32.80
2018-06-15T17:11:04.345Z,33.20
2018-06-15T17:13:31.930Z,33.00
2018-06-15T17:15:59.483Z,33.90
2018-06-15T17:18:27.092Z,34.50
2018-06-15T17:20:54.771Z,35.10
2018-06-15T17:23:22.400Z,35.80
2018-06-15T17:25:50.139Z,35.70
2018-06-15T17:28:17.893Z,35.70
2018-06-15T17:30:45.577Z,36.00
2018-06-15T17:33:13.179Z,36.10
2018-06-15T17:35:40.731Z,36.00
2018-06-15T17:38:08.345Z,36.90
2018-06-15T17:40:35.907Z,37.40
2018-06-15T17:43:03.479Z,37.90
2018-06-15T17:45:31.097Z,37.70
2018-06-15T17:47:58.652Z,38.50
2018-06-15T17:50:26.188Z,38.80
2018-06-15T17:52:53.732Z,39.20
2018-06-15T17:55:21.287Z,39.70
2018-06-15T18:02:43.797Z,41.10
2018-06-15T18:07:38.898Z,41.60
2018-06-15T18:10:06.477Z,42.40
2018-06-15T18:12:34.081Z,42.70
2018-06-15T18:17:29.209Z,44.30
2018-06-15T18:19:56.747Z,45.10
2018-06-15T18:22:24.369Z,45.80
2018-06-15T18:24:51.965Z,46.60
2018-06-15T18:27:19.513Z,47.10
2018-06-15T18:32:14.613Z,48.40
2018-06-15T18:34:42.190Z,49.80
2018-06-15T18:37:09.743Z,51.00
2018-06-15T18:39:37.343Z,52.80
2018-06-15T18:42:04.921Z,53.80
2018-06-15T18:44:32.505Z,53.80
2018-06-15T18:47:00.059Z,54.80
2018-06-15T18:49:27.643Z,56.30
2018-06-15T18:51:55.233Z,57.20
2018-06-15T18:54:22.812Z,58.20
2018-06-15T18:56:50.403Z,58.90
2018-06-15T18:59:18.007Z,59.40
2018-06-15T19:01:45.559Z,59.90
2018-06-15T19:04:13.189Z,60.60
2018-06-15T19:06:40.781Z,60.10
2018-06-15T19:09:09.650Z,59.80
2018-06-15T19:11:37.229Z,60.00
2018-06-15T19:14:04.856Z,60.20
2018-06-15T19:16:32.475Z,60.90
2018-06-15T19:19:00.100Z,61.30
2018-06-15T19:21:27.694Z,62.00
2018-06-15T19:23:55.352Z,62.50
2018-06-15T19:26:22.975Z,62.30
2018-06-15T19:31:18.210Z,62.20
2018-06-15T19:33:45.767Z,63.00
2018-06-15T19:36:13.448Z,64.10
2018-06-15T19:38:40.998Z,64.40
2018-06-15T19:41:08.623Z,65.10
2018-06-15T19:43:36.219Z,65.70
2018-06-15T19:46:03.941Z,66.10
2018-06-15T19:48:31.499Z,66.90
2018-06-15T19:50:59.096Z,67.50
2018-06-15T19:53:26.696Z,68.00
2018-06-15T19:55:54.286Z,68.30
2018-06-15T19:58:21.889Z,68.90
2018-06-15T20:00:49.585Z,68.70
2018-06-15T20:03:17.209Z,68.30
2018-06-15T20:05:44.804Z,68.10
2018-06-15T20:08:12.357Z,68.00
2018-06-15T20:10:39.945Z,68.40
2018-06-15T20:13:07.599Z,68.90
2018-06-15T20:15:35.251Z,69.50
2018-06-15T20:20:30.452Z,71.20
2018-06-15T20:22:58.091Z,71.70
2018-06-15T20:25:25.759Z,72.00
2018-06-15T20:27:53.295Z,71.80
2018-06-15T20:32:48.481Z,73.20
2018-06-15T20:35:16.096Z,74.00
2018-06-15T20:37:43.681Z,75.00
2018-06-15T20:40:11.311Z,75.70
2018-06-15T20:42:39.683Z,76.20
2018-06-15T20:45:07.342Z,76.80
2018-06-15T20:47:35.898Z,77.30
2018-06-15T20:50:03.534Z,77.90
2018-06-15T20:52:31.163Z,78.50
2018-06-15T20:54:58.832Z,79.50
2018-06-15T20:57:26.455Z,79.80
2018-06-15T20:59:54.007Z,80.00
2018-06-15T21:02:21.554Z,80.20
2018-06-15T21:04:49.144Z,80.50
2018-06-15T21:07:16.738Z,80.40
2018-06-15T21:09:44.328Z,80.90
2018-06-15T21:12:11.911Z,81.80
2018-06-15T21:14:39.560Z,82.00
2018-06-15T21:17:07.155Z,82.10
2018-06-15T21:19:34.762Z,82.70
2018-06-15T21:22:02.365Z,83.80
2018-06-15T21:24:30.169Z,84.00
2018-06-15T21:26:57.738Z,84.90
2018-06-15T21:29:25.250Z,86.00
2018-06-15T21:31:52.829Z,86.50
2018-06-15T21:34:20.370Z,87.10
2018-06-15T21:36:47.926Z,87.10
2018-06-15T21:39:15.458Z,87.20
2018-06-15T21:41:43.017Z,87.50
2018-06-15T21:44:10.628Z,88.00
2018-06-15T21:46:38.218Z,88.50
2018-06-15T21:49:05.802Z,88.40
2018-06-15T21:51:33.370Z,88.30
2018-06-15T21:54:00.942Z,88.50
2018-06-15T21:56:28.544Z,89.20
2018-06-15T21:58:56.097Z,89.80
2018-06-15T22:01:24.930Z,90.00
2018-06-15T22:03:52.475Z,90.10
2018-06-15T22:06:20.039Z,90.40
2018-06-15T22:08:47.611Z,90.70
2018-06-15T22:11:15.177Z,90.70
2018-06-15T22:13:42.737Z,90.80
2018-06-15T22:16:10.346Z,90.90
2018-06-15T22:18:37.893Z,91.10
2018-06-15T22:21:05.556Z,91.20
2018-06-15T22:23:33.089Z,91.40
2018-06-15T22:26:00.724Z,91.70
2018-06-15T22:28:28.253Z,91.90
2018-06-15T22:30:55.805Z,92.20
2018-06-15T22:33:23.349Z,92.40
2018-06-15T22:35:50.887Z,92.80
2018-06-15T22:38:18.447Z,92.90
2018-06-15T22:40:46.105Z,92.90
2018-06-15T22:43:13.646Z,92.90
2018-06-15T22:45:41.195Z,93.00
2018-06-15T22:48:08.710Z,93.00
2018-06-15T22:50:36.246Z,93.10
2018-06-15T22:53:03.883Z,93.20
2018-06-15T22:55:31.424Z,93.30
2018-06-15T22:57:58.976Z,93.60
2018-06-15T23:00:26.546Z,93.70
2018-06-15T23:02:54.133Z,93.80
2018-06-15T23:05:21.843Z,93.90
2018-06-15T23:07:49.394Z,93.90
2018-06-15T23:10:16.990Z,93.90
2018-06-15T23:12:44.595Z,94.00
2018-06-15T23:15:12.487Z,94.00
2018-06-15T23:17:40.866Z,94.00
2018-06-15T23:20:08.428Z,94.10
2018-06-15T23:22:35.986Z,94.20
2018-06-15T23:25:03.663Z,94.30
2018-06-15T23:27:31.198Z,94.70
2018-06-15T23:29:58.712Z,94.50
2018-06-15T23:32:26.332Z,94.60
2018-06-15T23:34:53.888Z,94.80
2018-06-15T23:39:48.862Z,95.00
2018-06-15T23:42:16.380Z,95.10
2018-06-15T23:44:43.910Z,95.10
2018-06-15T23:47:11.483Z,95.10
2018-06-15T23:49:39.040Z,95.20
2018-06-15T23:52:06.749Z,95.30
2018-06-15T23:54:34.338Z,95.40
2018-06-15T23:57:01.893Z,95.50
2018-06-15T23:59:29.426Z,95.60
